createdAt,value
2018-07-22T00:02:17.797Z,19.67
2018-07-22T00:04:46.401Z,19.65
2018-07-22T00:07:15.032Z,19.66
2018-07-22T00:09:43.701Z,19.72
2018-07-22T00:12:12.773Z,19.63
2018-07-22T00:14:41.402Z,19.59
2018-07-22T00:17:10.655Z,19.52
2018-07-22T00:19:39.457Z,19.51
2018-07-22T00:22:08.116Z,19.54
2018-07-22T00:24:36.779Z,19.54
2018-07-22T00:27:05.691Z,19.57
2018-07-22T00:29:34.357Z,19.51
2018-07-22T00:32:03.021Z,19.48
2018-07-22T00:34:31.646Z,19.48
2018-07-22T00:37:00.335Z,19.50
2018-07-22T00:39:29.124Z,19.47
2018-07-22T00:41:57.813Z,19.43
2018-07-22T00:44:26.472Z,19.41
2018-07-22T00:46:57.982Z,19.40
2018-07-22T00:49:26.609Z,19.40
2018-07-22T00:51:55.254Z,19.40
2018-07-22T00:54:23.923Z,19.40
2018-07-22T00:56:53.777Z,19.39
2018-07-22T00:59:22.530Z,19.40
2018-07-22T01:01:51.183Z,19.39
2018-07-22T01:04:19.917Z,19.39
2018-07-22T01:06:48.760Z,19.41
2018-07-22T01:09:17.443Z,19.41
2018-07-22T01:11:46.053Z,19.43
2018-07-22T01:14:14.693Z,19.44
2018-07-22T01:16:46.254Z,19.44
2018-07-22T01:19:14.925Z,19.43
2018-07-22T01:21:43.549Z,19.46
2018-07-22T01:24:12.161Z,19.48
2018-07-22T01:26:40.795Z,19.47
2018-07-22T01:29:09.543Z,19.43
2018-07-22T01:31:38.234Z,19.45
2018-07-22T01:34:07.489Z,19.43
2018-07-22T01:36:36.092Z,19.43
2018-07-22T01:39:06.709Z,19.47
2018-07-22T01:41:35.407Z,19.53
2018-07-22T01:44:03.998Z,19.50
2018-07-22T01:46:32.619Z,19.50
2018-07-22T01:49:01.238Z,19.50
2018-07-22T01:51:29.978Z,19.59
2018-07-22T01:53:58.728Z,19.57
2018-07-22T01:56:33.719Z,19.57
2018-07-22T01:59:03.538Z,19.58
2018-07-22T02:01:32.306Z,19.54
2018-07-22T02:04:01.074Z,19.56
2018-07-22T02:06:29.810Z,19.52
2018-07-22T02:08:58.506Z,19.49
2018-07-22T02:11:27.433Z,19.47
2018-07-22T02:13:56.045Z,19.46
2018-07-22T02:16:24.655Z,19.50
2018-07-22T02:18:53.260Z,19.52
2018-07-22T02:21:21.877Z,19.47
2018-07-22T02:23:50.601Z,19.46
2018-07-22T02:26:19.277Z,19.40
2018-07-22T02:28:47.890Z,19.33
2018-07-22T02:31:16.501Z,19.28
2018-07-22T02:33:45.154Z,19.34
2018-07-22T02:36:13.793Z,19.28
2018-07-22T02:38:42.478Z,19.25
2018-07-22T02:41:11.107Z,19.33
2018-07-22T02:43:39.741Z,19.34
2018-07-22T02:46:08.382Z,19.40
2018-07-22T02:48:37.075Z,19.39
2018-07-22T02:51:05.654Z,19.43
2018-07-22T02:53:34.336Z,19.43
2018-07-22T02:56:03.055Z,19.38
2018-07-22T02:58:31.711Z,19.31
2018-07-22T03:01:00.301Z,19.48
2018-07-22T03:03:29.064Z,19.43
2018-07-22T03:05:57.701Z,19.39
2018-07-22T03:08:26.355Z,19.42
2018-07-22T03:10:55.033Z,19.44
2018-07-22T03:13:23.625Z,19.53
2018-07-22T03:15:52.258Z,19.61
2018-07-22T03:18:20.846Z,19.53
2018-07-22T03:20:49.480Z,19.50
2018-07-22T03:23:18.277Z,19.47
2018-07-22T03:25:46.922Z,19.43
2018-07-22T03:28:15.538Z,19.42
2018-07-22T03:30:44.168Z,19.46
2018-07-22T03:33:12.807Z,19.44
2018-07-22T03:35:41.493Z,19.45
2018-07-22T03:38:10.138Z,19.39
2018-07-22T03:40:38.760Z,19.38
2018-07-22T03:43:07.451Z,19.37
2018-07-22T03:45:36.078Z,19.39
2018-07-22T03:48:04.758Z,19.38
2018-07-22T03:50:33.345Z,19.39
2018-07-22T03:53:02.017Z,19.39
2018-07-22T03:55:30.605Z,19.36
2018-07-22T03:57:59.298Z,19.36
2018-07-22T04:00:27.944Z,19.37
2018-07-22T04:02:56.750Z,19.36
2018-07-22T04:05:25.376Z,19.34
2018-07-22T04:07:54.018Z,19.40
2018-07-22T04:10:22.631Z,19.42
2018-07-22T04:12:51.362Z,19.43
2018-07-22T04:15:20.095Z,19.51
2018-07-22T04:17:48.729Z,19.51
2018-07-22T04:20:17.346Z,19.58
2018-07-22T04:22:45.946Z,19.55
2018-07-22T04:25:14.634Z,19.53
2018-07-22T04:27:43.300Z,19.60
2018-07-22T04:30:11.968Z,19.60
2018-07-22T04:32:40.561Z,19.68
2018-07-22T04:35:09.149Z,19.71
2018-07-22T04:37:37.744Z,19.80
2018-07-22T04:40:06.345Z,19.83
2018-07-22T04:42:34.941Z,19.84
2018-07-22T04:45:03.644Z,19.82
2018-07-22T04:47:32.252Z,19.93
2018-07-22T04:50:00.849Z,19.99
2018-07-22T04:52:29.658Z,20.07
2018-07-22T04:54:58.691Z,20.00
2018-07-22T04:57:27.331Z,20.00
2018-07-22T04:59:56.038Z,20.07
2018-07-22T05:02:24.691Z,20.15
2018-07-22T05:04:53.317Z,20.13
2018-07-22T05:07:22.050Z,20.22
2018-07-22T05:09:52.476Z,20.21
2018-07-22T05:12:21.117Z,20.35
2018-07-22T05:14:49.851Z,20.31
2018-07-22T05:17:26.772Z,20.41
2018-07-22T05:32:56.142Z,20.66
2018-07-22T05:35:25.090Z,20.72
2018-07-22T05:37:53.822Z,20.77
2018-07-22T05:40:22.537Z,20.92
2018-07-22T05:42:51.218Z,21.05
2018-07-22T05:45:20.195Z,21.18
2018-07-22T05:47:49.092Z,21.22
2018-07-22T05:50:17.881Z,21.09
2018-07-22T05:52:46.579Z,21.07
2018-07-22T05:55:15.321Z,20.96
2018-07-22T05:57:43.957Z,20.80
2018-07-22T06:00:12.675Z,21.13
2018-07-22T06:02:41.451Z,21.30
2018-07-22T06:05:10.243Z,21.24
2018-07-22T06:07:38.908Z,20.92
2018-07-22T06:10:08.015Z,20.77
2018-07-22T06:12:36.722Z,20.80
2018-07-22T06:15:07.139Z,20.82
2018-07-22T06:17:35.839Z,20.90
2018-07-22T06:20:05.058Z,21.06
2018-07-22T06:22:33.940Z,20.78
2018-07-22T06:25:02.698Z,20.77
2018-07-22T06:27:31.385Z,20.94
2018-07-22T06:30:00.055Z,20.94
2018-07-22T06:32:31.765Z,20.88
2018-07-22T06:35:04.197Z,20.83
2018-07-22T06:37:32.948Z,20.83
2018-07-22T06:40:01.697Z,20.99
2018-07-22T06:42:30.501Z,21.07
2018-07-22T06:44:59.263Z,21.06
2018-07-22T06:47:28.006Z,21.17
2018-07-22T06:49:56.714Z,21.32
2018-07-22T06:52:25.437Z,21.35
2018-07-22T06:54:54.214Z,21.56
2018-07-22T06:57:22.921Z,21.70
2018-07-22T06:59:51.926Z,21.81
2018-07-22T07:02:20.708Z,21.79
2018-07-22T07:04:49.484Z,22.10
2018-07-22T07:07:18.171Z,22.33
2018-07-22T07:09:46.893Z,21.92
2018-07-22T07:12:15.558Z,21.55
2018-07-22T07:14:45.087Z,21.42
2018-07-22T07:17:13.742Z,21.71
2018-07-22T07:19:42.431Z,21.91
2018-07-22T07:22:11.088Z,22.01
2018-07-22T07:24:39.846Z,22.00
2018-07-22T07:27:08.575Z,21.74
2018-07-22T07:29:37.209Z,21.50
2018-07-22T07:32:06.078Z,21.58
2018-07-22T07:34:34.771Z,21.56
2018-07-22T07:37:03.438Z,21.61
2018-07-22T07:39:32.099Z,21.79
2018-07-22T07:42:00.774Z,21.72
2018-07-22T07:44:29.402Z,21.79
2018-07-22T07:46:58.044Z,21.66
2018-07-22T07:49:26.765Z,21.47
2018-07-22T07:51:55.439Z,21.37
2018-07-22T07:54:24.135Z,21.37
2018-07-22T07:56:52.807Z,21.39
2018-07-22T07:59:21.660Z,21.52
2018-07-22T08:01:50.319Z,21.88
2018-07-22T08:04:19.210Z,22.15
2018-07-22T08:06:47.875Z,21.82
2018-07-22T08:09:16.465Z,21.96
2018-07-22T08:11:45.179Z,21.37
2018-07-22T08:14:13.800Z,21.44
2018-07-22T08:16:42.485Z,21.26
2018-07-22T08:19:11.201Z,21.27
2018-07-22T08:21:40.436Z,21.36
2018-07-22T08:24:09.244Z,21.30
2018-07-22T08:26:38.177Z,21.23
2018-07-22T08:29:31.687Z,21.14
2018-07-22T08:32:00.901Z,21.16
2018-07-22T08:34:29.649Z,21.25
2018-07-22T08:36:58.412Z,21.06
2018-07-22T08:39:28.323Z,21.06
2018-07-22T08:41:57.536Z,21.20
2018-07-22T08:44:26.218Z,21.45
2018-07-22T08:46:55.030Z,21.33
2018-07-22T08:49:23.753Z,21.43
2018-07-22T08:51:52.531Z,21.32
2018-07-22T08:54:21.216Z,21.56
2018-07-22T08:56:49.855Z,21.74
2018-07-22T08:59:18.488Z,21.95
2018-07-22T09:01:47.152Z,22.22
2018-07-22T09:04:15.861Z,22.07
2018-07-22T09:06:44.570Z,22.56
2018-07-22T09:09:13.617Z,22.96
2018-07-22T09:11:43.245Z,23.00
2018-07-22T09:14:11.943Z,22.98
2018-07-22T09:16:41.169Z,22.97
2018-07-22T09:19:09.854Z,23.47
2018-07-22T09:21:40.076Z,23.91
2018-07-22T09:24:09.454Z,23.92
2018-07-22T09:26:38.179Z,24.06
2018-07-22T09:29:06.866Z,24.36
2018-07-22T09:31:35.694Z,24.42
2018-07-22T09:34:04.380Z,24.80
2018-07-22T09:36:33.074Z,24.49
2018-07-22T09:39:01.775Z,24.37
2018-07-22T09:41:30.524Z,23.83
2018-07-22T09:43:59.390Z,23.71
2018-07-22T09:46:28.052Z,23.84
2018-07-22T09:48:56.733Z,24.16
2018-07-22T09:51:25.450Z,24.54
2018-07-22T09:53:54.239Z,24.21
2018-07-22T09:56:23.114Z,24.12
2018-07-22T09:58:51.833Z,23.90
2018-07-22T10:01:20.544Z,23.75
2018-07-22T10:03:50.186Z,23.84
2018-07-22T10:06:18.835Z,23.92
2018-07-22T10:08:47.537Z,24.24
2018-07-22T10:11:16.168Z,24.86
2018-07-22T10:13:44.921Z,25.14
2018-07-22T10:16:13.729Z,24.78
2018-07-22T10:18:42.584Z,24.68
2018-07-22T10:21:11.669Z,24.52
2018-07-22T10:23:40.645Z,24.39
2018-07-22T10:26:09.379Z,24.19
2018-07-22T10:28:38.106Z,24.35
2018-07-22T10:31:06.882Z,24.69
2018-07-22T10:33:35.699Z,24.79
2018-07-22T10:36:04.365Z,25.50
2018-07-22T10:38:33.098Z,25.38
2018-07-22T10:41:01.792Z,25.34
2018-07-22T10:43:30.675Z,25.39
2018-07-22T10:45:59.399Z,25.39
2018-07-22T10:48:28.117Z,25.88
2018-07-22T10:50:56.845Z,26.24
2018-07-22T10:53:25.633Z,25.90
2018-07-22T10:55:54.395Z,25.65
2018-07-22T10:58:23.161Z,25.85
2018-07-22T11:00:52.009Z,25.84
2018-07-22T11:03:20.772Z,26.45
2018-07-22T11:05:49.451Z,26.84
2018-07-22T11:08:18.826Z,26.97
2018-07-22T11:10:47.563Z,27.33
2018-07-22T11:13:16.260Z,27.28
2018-07-22T11:15:44.988Z,27.25
2018-07-22T11:18:13.673Z,27.61
2018-07-22T11:20:42.346Z,27.96
2018-07-22T11:23:11.005Z,28.19
2018-07-22T11:25:39.744Z,28.24
2018-07-22T11:28:08.463Z,28.06
2018-07-22T11:30:37.230Z,27.97
2018-07-22T11:33:05.959Z,27.77
2018-07-22T11:35:34.657Z,28.32
2018-07-22T11:38:03.509Z,28.52
2018-07-22T11:40:32.230Z,28.64
2018-07-22T11:43:00.971Z,28.45
2018-07-22T11:45:29.804Z,27.55
2018-07-22T11:47:58.531Z,27.49
2018-07-22T11:50:27.989Z,27.37
2018-07-22T11:52:56.608Z,27.40
2018-07-22T11:55:25.278Z,27.22
2018-07-22T11:57:54.122Z,27.44
2018-07-22T12:00:22.946Z,27.73
2018-07-22T12:02:51.678Z,27.60
2018-07-22T12:05:20.404Z,27.70
2018-07-22T12:07:49.107Z,27.78
2018-07-22T12:10:17.798Z,27.52
2018-07-22T12:12:46.511Z,27.17
2018-07-22T12:15:15.225Z,27.19
2018-07-22T12:17:44.495Z,27.18
2018-07-22T12:20:13.218Z,27.12
2018-07-22T12:22:41.962Z,27.14
2018-07-22T12:25:10.715Z,27.00
2018-07-22T12:27:39.470Z,26.58
2018-07-22T12:30:08.318Z,26.27
2018-07-22T12:32:37.110Z,26.04
2018-07-22T12:35:05.913Z,26.54
2018-07-22T12:37:34.631Z,25.59
2018-07-22T12:40:03.394Z,25.53
2018-07-22T12:42:32.126Z,25.16
2018-07-22T12:45:00.951Z,25.09
2018-07-22T12:47:29.797Z,25.43
2018-07-22T12:49:58.449Z,25.33
2018-07-22T12:52:27.136Z,25.50
2018-07-22T12:54:55.763Z,25.62
2018-07-22T12:57:24.444Z,25.64
2018-07-22T12:59:53.163Z,25.44
2018-07-22T13:02:21.902Z,26.21
2018-07-22T13:04:51.217Z,26.12
2018-07-22T13:07:19.942Z,26.51
2018-07-22T13:09:48.730Z,26.39
2018-07-22T13:12:17.435Z,26.57
2018-07-22T13:14:47.141Z,26.20
2018-07-22T13:17:15.855Z,26.51
2018-07-22T13:19:45.033Z,26.73
2018-07-22T13:22:13.788Z,27.23
2018-07-22T13:24:42.555Z,26.88
2018-07-22T13:27:12.015Z,26.71
2018-07-22T13:29:40.754Z,26.06
2018-07-22T13:32:09.603Z,26.49
2018-07-22T13:34:38.300Z,26.45
2018-07-22T13:37:07.503Z,26.53
2018-07-22T13:39:36.188Z,26.52
2018-07-22T13:42:04.841Z,25.89
2018-07-22T13:44:33.617Z,26.42
2018-07-22T13:47:02.313Z,26.27
2018-07-22T13:49:31.012Z,27.12
2018-07-22T13:51:59.796Z,27.06
2018-07-22T13:54:28.628Z,26.19
2018-07-22T13:56:57.377Z,26.38
2018-07-22T13:59:26.070Z,25.93
2018-07-22T14:01:54.851Z,26.05
2018-07-22T14:04:23.549Z,25.15
2018-07-22T14:06:52.266Z,24.54
2018-07-22T14:09:21.123Z,24.18
2018-07-22T14:11:49.920Z,23.96
2018-07-22T14:14:18.601Z,23.84
2018-07-22T14:16:47.889Z,23.12
2018-07-22T14:19:16.558Z,23.14
2018-07-22T14:21:45.274Z,22.90
2018-07-22T14:24:13.994Z,23.14
2018-07-22T14:26:42.751Z,22.79
2018-07-22T14:29:11.510Z,22.66
2018-07-22T14:31:40.332Z,22.57
2018-07-22T14:34:09.247Z,22.55
2018-07-22T14:36:38.164Z,22.30
2018-07-22T14:39:10.088Z,22.21
2018-07-22T14:41:38.843Z,22.33
2018-07-22T14:44:07.515Z,22.39
2018-07-22T14:46:36.593Z,22.30
2018-07-22T14:49:06.053Z,22.07
2018-07-22T14:51:34.706Z,22.21
2018-07-22T14:54:03.367Z,22.10
2018-07-22T14:56:32.217Z,22.30
2018-07-22T14:59:00.849Z,22.29
2018-07-22T15:01:30.058Z,22.48
2018-07-22T15:03:58.763Z,22.54
2018-07-22T15:06:27.477Z,22.66
2018-07-22T15:08:56.203Z,22.75
2018-07-22T15:11:24.942Z,22.69
2018-07-22T15:13:53.641Z,22.63
2018-07-22T15:16:22.315Z,22.64
2018-07-22T15:18:51.271Z,22.69
2018-07-22T15:21:19.968Z,22.84
2018-07-22T15:23:48.689Z,22.76
2018-07-22T15:26:17.425Z,22.90
2018-07-22T15:28:46.190Z,22.85
2018-07-22T15:31:19.892Z,23.22
2018-07-22T15:33:48.658Z,23.19
2018-07-22T15:36:17.736Z,23.29
2018-07-22T15:38:46.994Z,23.48
2018-07-22T15:41:15.720Z,23.47
2018-07-22T15:43:44.407Z,23.27
2018-07-22T15:46:13.074Z,23.27
2018-07-22T15:48:41.820Z,23.36
2018-07-22T15:51:10.449Z,23.34
2018-07-22T15:53:40.106Z,23.29
2018-07-22T15:56:08.782Z,23.39
2018-07-22T15:58:37.396Z,23.03
2018-07-22T16:01:06.253Z,23.17
2018-07-22T16:03:35.930Z,23.33
2018-07-22T16:06:04.653Z,23.30
2018-07-22T16:08:33.306Z,23.36
2018-07-22T16:11:01.975Z,23.31
2018-07-22T16:13:30.743Z,23.52
2018-07-22T16:15:59.402Z,24.05
2018-07-22T16:18:28.102Z,24.09
2018-07-22T16:20:56.819Z,24.00
2018-07-22T16:23:25.468Z,24.25
2018-07-22T16:25:54.146Z,24.05
2018-07-22T16:28:23.150Z,23.87
2018-07-22T16:30:51.853Z,23.72
2018-07-22T16:33:24.593Z,23.72
2018-07-22T16:35:53.370Z,23.71
2018-07-22T16:38:22.080Z,23.66
2018-07-22T16:40:51.441Z,23.80
2018-07-22T16:43:20.560Z,23.33
2018-07-22T16:45:50.160Z,23.64
2018-07-22T16:48:20.043Z,23.59
2018-07-22T16:50:50.488Z,23.80
2018-07-22T16:53:19.186Z,23.87
2018-07-22T16:55:47.870Z,23.65
2018-07-22T16:58:16.500Z,23.53
2018-07-22T17:00:45.929Z,23.30
2018-07-22T17:03:14.657Z,23.26
2018-07-22T17:05:44.649Z,23.20
2018-07-22T17:08:13.341Z,23.07
2018-07-22T17:10:42.072Z,22.85
2018-07-22T17:13:10.792Z,22.69
2018-07-22T17:15:40.585Z,22.48
2018-07-22T17:18:09.856Z,22.22
2018-07-22T17:20:39.926Z,22.08
2018-07-22T17:23:09.507Z,22.20
2018-07-22T17:25:39.834Z,21.97
2018-07-22T17:28:09.054Z,21.79
2018-07-22T17:30:38.648Z,21.76
2018-07-22T17:33:07.895Z,21.71
2018-07-22T17:35:36.981Z,21.59
2018-07-22T17:38:09.969Z,21.51
2018-07-22T17:40:40.650Z,21.44
2018-07-22T17:43:10.592Z,21.30
2018-07-22T17:45:39.442Z,21.31
2018-07-22T17:48:09.648Z,21.19
2018-07-22T17:50:39.638Z,21.09
2018-07-22T17:53:09.551Z,21.04
2018-07-22T17:55:38.874Z,21.05
2018-07-22T17:58:07.879Z,20.91
2018-07-22T18:00:39.845Z,20.89
2018-07-22T18:03:26.983Z,20.86
2018-07-22T18:05:56.235Z,20.74
2018-07-22T18:08:25.617Z,20.70
2018-07-22T18:10:54.880Z,20.75
2018-07-22T18:13:23.708Z,20.63
2018-07-22T18:15:54.161Z,20.61
2018-07-22T18:18:23.089Z,20.36
2018-07-22T18:20:52.191Z,20.36
2018-07-22T18:23:21.589Z,20.19
2018-07-22T18:25:50.724Z,20.11
2018-07-22T18:28:20.292Z,20.09
2018-07-22T18:30:49.333Z,20.05
2018-07-22T18:33:18.446Z,20.03
2018-07-22T18:35:49.127Z,19.96
2018-07-22T18:38:19.607Z,20.01
2018-07-22T18:40:50.538Z,19.98
2018-07-22T18:43:22.725Z,19.85
2018-07-22T18:45:51.615Z,19.90
2018-07-22T18:48:20.502Z,19.82
2018-07-22T18:50:49.773Z,19.75
2018-07-22T18:53:19.005Z,19.73
2018-07-22T18:55:47.999Z,19.77
2018-07-22T18:58:18.711Z,19.91
2018-07-22T19:00:47.792Z,19.86
2018-07-22T19:03:16.792Z,19.74
2018-07-22T19:05:45.797Z,19.80
2018-07-22T19:08:14.739Z,19.79
2018-07-22T19:10:43.781Z,19.60
2018-07-22T19:13:12.831Z,19.59
2018-07-22T19:15:41.909Z,19.52
2018-07-22T19:18:11.170Z,19.55
2018-07-22T19:20:40.282Z,19.62
2018-07-22T19:23:10.052Z,19.67
2018-07-22T19:25:39.766Z,19.64
2018-07-22T19:28:09.012Z,19.56
2018-07-22T19:30:38.317Z,19.55
2018-07-22T19:33:07.436Z,19.50
2018-07-22T19:35:36.395Z,19.75
2018-07-22T19:38:05.390Z,19.64
2018-07-22T19:40:34.357Z,19.71
2018-07-22T19:43:03.622Z,19.67
2018-07-22T19:45:32.824Z,19.50
2018-07-22T19:48:01.846Z,19.64
2018-07-22T19:50:30.849Z,19.52
2018-07-22T19:52:59.806Z,19.57
2018-07-22T19:55:28.840Z,19.47
2018-07-22T19:57:57.971Z,19.37
2018-07-22T20:00:27.589Z,19.38
2018-07-22T20:02:57.496Z,19.53
2018-07-22T20:05:26.661Z,19.53
2018-07-22T20:07:56.412Z,19.47
2018-07-22T20:10:26.760Z,19.36
2018-07-22T20:12:55.955Z,19.22
2018-07-22T20:15:25.222Z,19.14
2018-07-22T20:17:54.268Z,19.15
2018-07-22T20:20:23.416Z,19.10
2018-07-22T20:22:52.431Z,19.10
2018-07-22T20:25:21.333Z,19.05
2018-07-22T20:27:50.092Z,19.13
2018-07-22T20:30:20.431Z,19.12
2018-07-22T20:32:49.065Z,19.14
2018-07-22T20:35:18.038Z,19.15
2018-07-22T20:37:46.768Z,19.21
2018-07-22T20:40:17.609Z,19.22
2018-07-22T20:42:46.538Z,19.23
2018-07-22T20:45:15.411Z,19.28
2018-07-22T20:47:46.943Z,19.26
2018-07-22T20:50:16.569Z,19.38
2018-07-22T20:52:47.589Z,19.49
2018-07-22T20:55:16.440Z,19.51
2018-07-22T20:57:45.305Z,19.38
2018-07-22T21:00:14.291Z,19.32
2018-07-22T21:02:43.161Z,19.38
2018-07-22T21:05:11.981Z,19.39
2018-07-22T21:07:40.686Z,19.46
2018-07-22T21:10:09.562Z,19.43
2018-07-22T21:13:21.714Z,19.53
2018-07-22T21:15:50.554Z,19.37
2018-07-22T21:18:20.643Z,19.39
2018-07-22T21:20:49.334Z,19.44
2018-07-22T21:23:17.975Z,19.37
2018-07-22T21:25:46.663Z,19.40
2018-07-22T21:28:16.342Z,19.54
2018-07-22T21:30:44.997Z,19.66
2018-07-22T21:33:13.649Z,19.59
2018-07-22T21:35:42.297Z,19.42
2018-07-22T21:38:11.005Z,19.38
2018-07-22T21:40:39.642Z,19.33
2018-07-22T21:43:08.432Z,19.32
2018-07-22T21:45:37.008Z,19.38
2018-07-22T21:48:05.668Z,19.40
2018-07-22T21:50:34.382Z,19.45
2018-07-22T21:53:03.030Z,19.52
2018-07-22T21:55:31.839Z,19.47
2018-07-22T21:58:00.469Z,19.45
2018-07-22T22:00:34.144Z,19.41
2018-07-22T22:03:03.853Z,19.60
2018-07-22T22:05:32.477Z,19.55
2018-07-22T22:08:01.091Z,19.66
2018-07-22T22:10:29.734Z,19.49
2018-07-22T22:12:58.562Z,19.41
2018-07-22T22:15:28.384Z,19.35
2018-07-22T22:17:58.337Z,19.30
2018-07-22T22:20:27.589Z,19.31
2018-07-22T22:22:56.446Z,19.28
2018-07-22T22:25:25.050Z,19.31
2018-07-22T22:27:53.694Z,19.28
2018-07-22T22:30:22.417Z,19.27
2018-07-22T22:32:51.006Z,19.32
2018-07-22T22:35:19.941Z,19.20
2018-07-22T22:37:49.313Z,19.15
2018-07-22T22:40:18.414Z,19.15
2018-07-22T22:42:47.613Z,19.22
2018-07-22T22:45:16.967Z,19.18
2018-07-22T22:47:45.650Z,19.19
2018-07-22T22:50:14.965Z,19.18
2018-07-22T22:52:43.758Z,19.35
2018-07-22T22:55:12.443Z,19.24
2018-07-22T22:59:49.902Z,19.14
2018-07-22T23:02:18.627Z,19.04
2018-07-22T23:04:47.375Z,19.00
2018-07-22T23:07:16.621Z,19.11
2018-07-22T23:09:45.368Z,19.11
2018-07-22T23:12:14.079Z,19.14
2018-07-22T23:14:42.684Z,19.02
2018-07-22T23:17:11.282Z,19.01
2018-07-22T23:19:39.870Z,18.96
2018-07-22T23:22:08.533Z,18.92
2018-07-22T23:24:37.158Z,18.94
2018-07-22T23:27:05.789Z,18.96
2018-07-22T23:29:34.437Z,19.20
2018-07-22T23:32:03.043Z,19.19
2018-07-22T23:34:31.673Z,19.09
2018-07-22T23:37:00.306Z,19.15
2018-07-22T23:39:28.965Z,19.02
2018-07-22T23:41:57.646Z,18.98
2018-07-22T23:44:26.426Z,18.98
2018-07-22T23:46:55.002Z,18.93
2018-07-22T23:49:23.584Z,19.12
2018-07-22T23:51:52.214Z,19.08
2018-07-22T23:54:21.016Z,19.01
2018-07-22T23:56:49.641Z,19.06
2018-07-22T23:59:18.269Z,18.99
